sensor_id;sensor_type;location;lat;lon;timestamp;P1;durP1;ratioP1;P2;durP2;ratioP2
24261;SDS011;12385;51.412;5.540;2023-04-25T00:01:02;27.75;;;7.28;;
24261;SDS011;12385;51.412;5.540;2023-04-25T00:03:29;20.88;;;7.10;;
24261;SDS011;12385;51.412;5.540;2023-04-25T00:05:56;23.92;;;7.95;;
24261;SDS011;12385;51.412;5.540;2023-04-25T00:08:26;28.63;;;8.18;;
24261;SDS011;12385;51.412;5.540;2023-04-25T00:10:54;20.95;;;7.28;;
24261;SDS011;12385;51.412;5.540;2023-04-25T00:13:20;22.35;;;7.32;;
24261;SDS011;12385;51.412;5.540;2023-04-25T00:15:46;22.65;;;7.55;;
24261;SDS011;12385;51.412;5.540;2023-04-25T00:18:13;25.17;;;7.32;;
24261;SDS011;12385;51.412;5.540;2023-04-25T00:20:39;23.05;;;7.72;;
24261;SDS011;12385;51.412;5.540;2023-04-25T00:23:05;25.48;;;7.70;;
24261;SDS011;12385;51.412;5.540;2023-04-25T00:25:31;26.30;;;7.20;;
24261;SDS011;12385;51.412;5.540;2023-04-25T00:27:56;26.00;;;7.32;;
24261;SDS011;12385;51.412;5.540;2023-04-25T00:30:22;26.30;;;7.75;;
24261;SDS011;12385;51.412;5.540;2023-04-25T00:32:48;23.27;;;7.15;;
24261;SDS011;12385;51.412;5.540;2023-04-25T00:35:15;24.00;;;6.57;;
24261;SDS011;12385;51.412;5.540;2023-04-25T00:37:41;16.70;;;6.80;;
24261;SDS011;12385;51.412;5.540;2023-04-25T00:40:07;22.15;;;7.13;;
24261;SDS011;12385;51.412;5.540;2023-04-25T00:42:35;22.83;;;6.93;;
24261;SDS011;12385;51.412;5.540;2023-04-25T00:45:02;23.67;;;7.07;;
24261;SDS011;12385;51.412;5.540;2023-04-25T00:47:30;21.73;;;7.05;;
24261;SDS011;12385;51.412;5.540;2023-04-25T00:49:57;18.85;;;6.50;;
24261;SDS011;12385;51.412;5.540;2023-04-25T00:52:23;26.27;;;7.25;;
24261;SDS011;12385;51.412;5.540;2023-04-25T00:54:49;20.90;;;6.68;;
24261;SDS011;12385;51.412;5.540;2023-04-25T00:57:15;24.63;;;7.28;;
24261;SDS011;12385;51.412;5.540;2023-04-25T00:59:42;24.30;;;6.82;;
24261;SDS011;12385;51.412;5.540;2023-04-25T01:04:38;23.88;;;7.25;;
24261;SDS011;12385;51.412;5.540;2023-04-25T01:07:04;26.58;;;7.18;;
24261;SDS011;12385;51.412;5.540;2023-04-25T01:09:30;23.67;;;7.40;;
24261;SDS011;12385;51.412;5.540;2023-04-25T01:11:57;21.08;;;7.57;;
24261;SDS011;12385;51.412;5.540;2023-04-25T01:14:23;25.50;;;7.68;;
24261;SDS011;12385;51.412;5.540;2023-04-25T01:16:48;24.85;;;7.30;;
24261;SDS011;12385;51.412;5.540;2023-04-25T01:19:16;20.23;;;7.18;;
24261;SDS011;12385;51.412;5.540;2023-04-25T01:21:43;29.08;;;7.60;;
24261;SDS011;12385;51.412;5.540;2023-04-25T01:24:09;31.05;;;7.97;;
24261;SDS011;12385;51.412;5.540;2023-04-25T01:26:35;27.35;;;8.05;;
24261;SDS011;12385;51.412;5.540;2023-04-25T01:29:01;23.95;;;6.72;;
24261;SDS011;12385;51.412;5.540;2023-04-25T01:31:28;25.05;;;7.80;;
24261;SDS011;12385;51.412;5.540;2023-04-25T01:33:55;26.85;;;7.47;;
24261;SDS011;12385;51.412;5.540;2023-04-25T01:36:20;25.63;;;7.32;;
24261;SDS011;12385;51.412;5.540;2023-04-25T01:38:46;24.65;;;7.57;;
24261;SDS011;12385;51.412;5.540;2023-04-25T01:41:13;26.08;;;7.97;;
24261;SDS011;12385;51.412;5.540;2023-04-25T01:43:39;23.33;;;7.70;;
24261;SDS011;12385;51.412;5.540;2023-04-25T01:46:05;23.13;;;7.30;;
24261;SDS011;12385;51.412;5.540;2023-04-25T01:48:31;22.88;;;7.53;;
24261;SDS011;12385;51.412;5.540;2023-04-25T01:50:57;33.00;;;8.20;;
24261;SDS011;12385;51.412;5.540;2023-04-25T01:53:23;29.67;;;7.63;;
24261;SDS011;12385;51.412;5.540;2023-04-25T01:55:50;26.33;;;7.70;;
24261;SDS011;12385;51.412;5.540;2023-04-25T01:58:16;22.52;;;7.43;;
24261;SDS011;12385;51.412;5.540;2023-04-25T02:00:41;22.98;;;7.30;;
24261;SDS011;12385;51.412;5.540;2023-04-25T02:03:08;23.33;;;7.25;;
24261;SDS011;12385;51.412;5.540;2023-04-25T02:05:34;27.10;;;7.80;;
24261;SDS011;12385;51.412;5.540;2023-04-25T02:08:01;30.88;;;8.20;;
24261;SDS011;12385;51.412;5.540;2023-04-25T02:10:28;26.02;;;7.53;;
24261;SDS011;12385;51.412;5.540;2023-04-25T02:12:53;24.75;;;8.15;;
24261;SDS011;12385;51.412;5.540;2023-04-25T02:15:19;31.30;;;7.70;;
24261;SDS011;12385;51.412;5.540;2023-04-25T02:17:50;29.77;;;8.50;;
24261;SDS011;12385;51.412;5.540;2023-04-25T02:20:17;25.35;;;7.38;;
24261;SDS011;12385;51.412;5.540;2023-04-25T02:22:45;30.83;;;8.50;;
24261;SDS011;12385;51.412;5.540;2023-04-25T02:25:11;32.00;;;7.95;;
24261;SDS011;12385;51.412;5.540;2023-04-25T02:27:37;32.05;;;7.72;;
24261;SDS011;12385;51.412;5.540;2023-04-25T02:30:02;33.45;;;8.07;;
24261;SDS011;12385;51.412;5.540;2023-04-25T02:32:29;23.17;;;7.55;;
24261;SDS011;12385;51.412;5.540;2023-04-25T02:34:55;27.13;;;7.90;;
24261;SDS011;12385;51.412;5.540;2023-04-25T02:37:24;30.35;;;7.70;;
24261;SDS011;12385;51.412;5.540;2023-04-25T02:39:50;28.65;;;7.43;;
24261;SDS011;12385;51.412;5.540;2023-04-25T02:42:15;28.02;;;8.10;;
24261;SDS011;12385;51.412;5.540;2023-04-25T02:44:41;31.27;;;8.40;;
24261;SDS011;12385;51.412;5.540;2023-04-25T02:47:06;30.08;;;8.70;;
24261;SDS011;12385;51.412;5.540;2023-04-25T02:49:32;35.20;;;8.85;;
24261;SDS011;12385;51.412;5.540;2023-04-25T02:51:59;33.42;;;8.68;;
24261;SDS011;12385;51.412;5.540;2023-04-25T02:54:24;25.50;;;8.57;;
24261;SDS011;12385;51.412;5.540;2023-04-25T02:56:50;34.75;;;9.00;;
24261;SDS011;12385;51.412;5.540;2023-04-25T02:59:15;28.95;;;8.48;;
24261;SDS011;12385;51.412;5.540;2023-04-25T03:01:41;31.17;;;9.18;;
24261;SDS011;12385;51.412;5.540;2023-04-25T03:04:07;31.48;;;8.90;;
24261;SDS011;12385;51.412;5.540;2023-04-25T03:06:32;26.15;;;8.43;;
24261;SDS011;12385;51.412;5.540;2023-04-25T03:08:58;34.30;;;9.73;;
24261;SDS011;12385;51.412;5.540;2023-04-25T03:11:25;25.45;;;7.88;;
24261;SDS011;12385;51.412;5.540;2023-04-25T03:16:19;34.72;;;9.00;;
24261;SDS011;12385;51.412;5.540;2023-04-25T03:18:45;28.20;;;9.50;;
24261;SDS011;12385;51.412;5.540;2023-04-25T03:21:10;28.70;;;8.52;;
24261;SDS011;12385;51.412;5.540;2023-04-25T03:23:36;35.13;;;8.98;;
24261;SDS011;12385;51.412;5.540;2023-04-25T03:26:01;29.80;;;8.43;;
24261;SDS011;12385;51.412;5.540;2023-04-25T03:28:27;31.05;;;8.38;;
24261;SDS011;12385;51.412;5.540;2023-04-25T03:30:53;30.33;;;8.48;;
24261;SDS011;12385;51.412;5.540;2023-04-25T03:33:19;30.10;;;8.15;;
24261;SDS011;12385;51.412;5.540;2023-04-25T03:35:44;33.03;;;8.00;;
24261;SDS011;12385;51.412;5.540;2023-04-25T03:38:12;23.73;;;7.57;;
24261;SDS011;12385;51.412;5.540;2023-04-25T03:40:38;29.60;;;7.47;;
24261;SDS011;12385;51.412;5.540;2023-04-25T03:43:03;32.72;;;8.45;;
24261;SDS011;12385;51.412;5.540;2023-04-25T03:45:29;31.00;;;7.93;;
24261;SDS011;12385;51.412;5.540;2023-04-25T03:47:55;23.85;;;7.05;;
24261;SDS011;12385;51.412;5.540;2023-04-25T03:50:21;25.83;;;7.70;;
24261;SDS011;12385;51.412;5.540;2023-04-25T03:52:46;32.05;;;7.25;;
24261;SDS011;12385;51.412;5.540;2023-04-25T03:55:12;26.65;;;7.57;;
24261;SDS011;12385;51.412;5.540;2023-04-25T03:57:37;29.88;;;8.00;;
24261;SDS011;12385;51.412;5.540;2023-04-25T04:00:03;25.85;;;8.18;;
24261;SDS011;12385;51.412;5.540;2023-04-25T04:02:29;22.05;;;7.28;;
24261;SDS011;12385;51.412;5.540;2023-04-25T04:04:55;27.95;;;7.55;;
24261;SDS011;12385;51.412;5.540;2023-04-25T04:07:21;30.25;;;8.32;;
24261;SDS011;12385;51.412;5.540;2023-04-25T04:09:47;36.10;;;7.82;;
24261;SDS011;12385;51.412;5.540;2023-04-25T04:12:12;29.27;;;7.97;;
24261;SDS011;12385;51.412;5.540;2023-04-25T04:14:40;31.20;;;8.02;;
24261;SDS011;12385;51.412;5.540;2023-04-25T04:17:06;37.00;;;8.60;;
24261;SDS011;12385;51.412;5.540;2023-04-25T04:19:31;29.42;;;8.18;;
24261;SDS011;12385;51.412;5.540;2023-04-25T04:21:57;33.42;;;8.30;;
24261;SDS011;12385;51.412;5.540;2023-04-25T04:24:23;29.33;;;8.30;;
24261;SDS011;12385;51.412;5.540;2023-04-25T04:26:50;24.50;;;7.60;;
24261;SDS011;12385;51.412;5.540;2023-04-25T04:29:15;25.27;;;7.40;;
24261;SDS011;12385;51.412;5.540;2023-04-25T04:31:47;30.50;;;8.27;;
24261;SDS011;12385;51.412;5.540;2023-04-25T04:34:22;29.08;;;7.45;;
24261;SDS011;12385;51.412;5.540;2023-04-25T04:36:50;27.23;;;8.27;;
24261;SDS011;12385;51.412;5.540;2023-04-25T04:39:15;31.73;;;7.97;;
24261;SDS011;12385;51.412;5.540;2023-04-25T04:41:41;32.60;;;7.93;;
24261;SDS011;12385;51.412;5.540;2023-04-25T04:46:37;24.05;;;7.25;;
24261;SDS011;12385;51.412;5.540;2023-04-25T04:49:08;30.15;;;7.35;;
24261;SDS011;12385;51.412;5.540;2023-04-25T04:51:36;28.60;;;7.15;;
24261;SDS011;12385;51.412;5.540;2023-04-25T04:54:04;29.70;;;7.00;;
24261;SDS011;12385;51.412;5.540;2023-04-25T04:56:30;34.20;;;7.88;;
24261;SDS011;12385;51.412;5.540;2023-04-25T04:58:56;33.22;;;7.47;;
24261;SDS011;12385;51.412;5.540;2023-04-25T05:01:23;25.08;;;7.30;;
24261;SDS011;12385;51.412;5.540;2023-04-25T05:03:49;27.27;;;7.38;;
24261;SDS011;12385;51.412;5.540;2023-04-25T05:06:16;32.72;;;7.10;;
24261;SDS011;12385;51.412;5.540;2023-04-25T05:08:42;26.95;;;7.10;;
24261;SDS011;12385;51.412;5.540;2023-04-25T05:11:07;25.30;;;6.93;;
24261;SDS011;12385;51.412;5.540;2023-04-25T05:13:33;27.70;;;7.15;;
24261;SDS011;12385;51.412;5.540;2023-04-25T05:16:01;34.08;;;6.90;;
24261;SDS011;12385;51.412;5.540;2023-04-25T05:18:27;26.75;;;6.65;;
24261;SDS011;12385;51.412;5.540;2023-04-25T05:20:52;26.25;;;6.60;;
24261;SDS011;12385;51.412;5.540;2023-04-25T05:23:19;24.30;;;6.20;;
24261;SDS011;12385;51.412;5.540;2023-04-25T05:25:45;26.08;;;6.00;;
24261;SDS011;12385;51.412;5.540;2023-04-25T21:06:22;13.23;;;2.75;;
24261;SDS011;12385;51.412;5.540;2023-04-25T21:08:48;13.38;;;3.00;;
24261;SDS011;12385;51.412;5.540;2023-04-25T21:11:15;10.23;;;3.00;;
24261;SDS011;12385;51.412;5.540;2023-04-25T21:13:41;10.43;;;2.92;;
24261;SDS011;12385;51.412;5.540;2023-04-25T21:16:06;11.40;;;2.92;;
24261;SDS011;12385;51.412;5.540;2023-04-25T21:18:33;10.20;;;2.97;;
24261;SDS011;12385;51.412;5.540;2023-04-25T21:20:58;15.27;;;3.70;;
24261;SDS011;12385;51.412;5.540;2023-04-25T21:23:26;10.93;;;3.50;;
24261;SDS011;12385;51.412;5.540;2023-04-25T21:25:52;16.35;;;3.17;;
24261;SDS011;12385;51.412;5.540;2023-04-25T21:28:18;14.52;;;3.33;;
24261;SDS011;12385;51.412;5.540;2023-04-25T21:30:44;11.70;;;3.25;;
24261;SDS011;12385;51.412;5.540;2023-04-25T21:33:12;14.68;;;3.35;;
24261;SDS011;12385;51.412;5.540;2023-04-25T21:35:38;16.33;;;3.22;;
24261;SDS011;12385;51.412;5.540;2023-04-25T21:38:04;10.13;;;3.03;;
24261;SDS011;12385;51.412;5.540;2023-04-25T21:40:31;14.80;;;3.67;;
24261;SDS011;12385;51.412;5.540;2023-04-25T21:42:57;11.73;;;3.20;;
24261;SDS011;12385;51.412;5.540;2023-04-25T21:45:22;11.82;;;3.58;;
24261;SDS011;12385;51.412;5.540;2023-04-25T21:47:48;13.43;;;3.53;;
24261;SDS011;12385;51.412;5.540;2023-04-25T21:50:14;14.35;;;4.10;;
24261;SDS011;12385;51.412;5.540;2023-04-25T23:08:03;18.02;;;4.80;;
24261;SDS011;12385;51.412;5.540;2023-04-25T23:10:30;15.27;;;4.72;;
24261;SDS011;12385;51.412;5.540;2023-04-25T23:13:02;9.52;;;4.72;;
24261;SDS011;12385;51.412;5.540;2023-04-25T23:15:28;14.23;;;5.28;;
24261;SDS011;12385;51.412;5.540;2023-04-25T23:17:55;14.95;;;4.93;;
24261;SDS011;12385;51.412;5.540;2023-04-25T23:20:39;13.35;;;4.68;;
24261;SDS011;12385;51.412;5.540;2023-04-25T23:23:05;13.73;;;4.85;;
24261;SDS011;12385;51.412;5.540;2023-04-25T23:25:31;17.33;;;4.95;;
24261;SDS011;12385;51.412;5.540;2023-04-25T23:27:57;15.13;;;4.65;;
24261;SDS011;12385;51.412;5.540;2023-04-25T23:30:22;9.88;;;4.22;;
24261;SDS011;12385;51.412;5.540;2023-04-25T23:32:48;15.10;;;5.05;;
24261;SDS011;12385;51.412;5.540;2023-04-25T23:35:14;10.52;;;4.72;;
24261;SDS011;12385;51.412;5.540;2023-04-25T23:37:39;17.63;;;4.88;;
24261;SDS011;12385;51.412;5.540;2023-04-25T23:40:06;18.13;;;4.80;;
24261;SDS011;12385;51.412;5.540;2023-04-25T23:42:33;13.10;;;5.18;;
24261;SDS011;12385;51.412;5.540;2023-04-25T23:45:03;15.50;;;4.45;;
24261;SDS011;12385;51.412;5.540;2023-04-25T23:47:30;11.68;;;4.55;;
24261;SDS011;12385;51.412;5.540;2023-04-25T23:49:56;13.80;;;4.88;;
24261;SDS011;12385;51.412;5.540;2023-04-25T23:52:25;14.75;;;5.68;;
24261;SDS011;12385;51.412;5.540;2023-04-25T23:54:52;16.02;;;4.75;;
24261;SDS011;12385;51.412;5.540;2023-04-25T23:57:18;15.25;;;4.82;;
